Tiempo atmosférico en la estación meteorológica de Larraga, Navarra (375 m.)



Fecha
DESCASC
Temp. máxima en grados centígrados (hora)
DESCASC
Temp. mínima en grados centígrados (hora)
DESCASC
Temp. media en grados centígrados
DESCASC
Racha de viento máxima en m/sg (hora)
DESCASC
Velocidad máxima media en intervalos de 10 minutos(hora)
DESCASC
Precipitaciones diarias en mm
DESCASC
Precipitaciones de 00:00 a 06:00 en mm
DESCASC
Precipitaciones de 06:00 a 12:00 en mm
DESCASC
Precipitaciones de 12:00 a 18:00 en mm
DESCASC
Precipitaciones de 18:00 a 24:00 en mm
DESCASC
28-02-2021 11.2 (16:40) 3.7 (02:10) 7.4 15 (23:20) 10.56 (23:20) 3 0 0 0.6 2.4
27-02-2021 15 (14:30) 5.4 (23:59) 10.2 12.78 (16:10) 8.06 (15:20) 0 0 0 0 0
26-02-2021 16.9 (16:20) 4.7 (07:40) 10.8 7.78 (20:10) 5.28 (19:50) 0 0 0 0 0
25-02-2021 14 (15:20) 6.7 (00:00) 10.3 16.11 (03:50) 12.22 (03:50) 0 0 0 0 0
24-02-2021 15.6 (15:40) 6.9 (00:00) 11.3 17.22 (15:20) 12.5 (15:50) 0 0 0 0 0
23-02-2021 15.1 (15:00) 4.6 (00:00) 9.9 15.56 (15:40) 11.39 (15:40) 0 0 0 0 0
22-02-2021 12.3 (00:20) 3.9 (00:00) 8.1 13.06 (04:30) 9.72 (04:30) 27.6 20.8 6.6 0 0.2
21-02-2021 13 (20:20) 7.5 (00:00) 10.3 21.39 (03:00) 16.39 (03:00) 0 0 0 0 0
20-02-2021 18 (16:00) 7.8 (00:00) 12.9 20.28 (13:20) 13.61 (14:00) 0 0 0 0 0
19-02-2021 17.7 (15:20) 6.4 (00:00) 12.1 15.83 (15:20) 12.5 (15:30) 0 0 0 0 0
18-02-2021 17.8 (16:00) 7.6 (00:00) 12.7 15.28 (07:30) 11.67 (07:50) 0 0 0 0 0
17-02-2021 15.3 (13:30) 5 (00:00) 10.2 12.22 (23:30) 8.89 (23:59) 0 0 0 0 0
16-02-2021 14.5 (15:20) 7.5 (00:00) 11 13.89 (10:40) 10.56 (10:40) 0 0 0 0 0
15-02-2021 10.6 (16:20) 6.3 (00:00) 8.5 11.94 (23:00) 8.61 (23:30) 0 0 0 0 0
14-02-2021 13.2 (15:10) 1 (00:00) 7.1 15.28 (14:20) 11.67 (16:50) 0 0 0 0 0
13-02-2021 12.6 (14:00) 4.7 (00:00) 8.7 8.89 (00:30) 6.67 (00:20) 0 0 0 0 0
12-02-2021 13.3 (14:20) 8.1 (00:00) 10.7 14.72 (20:00) 10.83 (19:30) 2.4 0 1.6 0.8 0
11-02-2021 15.2 (16:30) 2.5 (00:00) 8.8 5 (17:10) 3.61 (17:10) 0 0 0 0 0
10-02-2021 12 (15:40) 3.7 (00:00) 7.9 11.11 (14:00) 8.33 (14:10) 6.6 1.8 4.8 0 0
09-02-2021 10.2 (11:40) 5.2 (00:00) 7.7 15.83 (15:00) 11.39 (13:40) 1 0 0 1 0
08-02-2021 12.7 (14:00) 5 (00:00) 8.8 15.28 (15:40) 10.28 (15:40) 0.2 0.2 0 0 0
07-02-2021 10.5 (15:20) 3.3 (00:00) 6.9 10.56 (11:30) 6.67 (11:20) 0.4 0 0 0 0.4
06-02-2021 9.1 (10:20) 5.6 (00:00) 7.4 9.44 (15:10) 5.56 (15:10) 13.2 0.2 7.6 5 0.4
05-02-2021 15.7 (13:40) 6.8 (00:00) 11.3 11.94 (14:00) 9.17 (14:10) 0 0 0 0 0
04-02-2021 16.8 (15:00) 8.8 (00:00) 12.8 11.11 (16:20) 8.33 (16:10) 0 0 0 0 0
03-02-2021 15.7 (16:00) 9 (00:00) 12.3 12.78 (03:50) 9.72 (06:50) 0.2 0 0 0 0.2
02-02-2021 17.8 (15:10) 7.9 (07:00) 12.8 9.72 (23:20) 6.11 (11:30) 0 0 0 0 0
01-02-2021 14.8 (12:40) 6.9 (00:00) 10.9 10.83 (13:40) 6.94 (13:40) 0 0 0 0 0
31-01-2021 14.7 (15:40) 7.1 (00:00) 10.9 17.22 (22:30) 10.83 (22:30) 0.2 0 0.2 0 0
30-01-2021 13.7 (12:10) 6.5 (00:00) 10.1 19.17 (12:20) 11.94 (16:00) 3.2 2.2 0.2 0.8 0

Gráficas

Temp. máximas Temp. mínimas Temp. medias Precipitaciones Rachas de viento máximas Velocidades máximas media en intervalos de 10 minutos

Datos horarios

Fecha y hora oficial Temperatura (ºC) Velocidad del viento (km/h) Dirección del viento Racha (km/h) Dirección de racha Precipitación (mm) Presión (hPa) Tendencia (hPa) Humedad (%)
2021-02-28 23:00:00 9.3 34 Sudeste 47 Sudeste 0 -- -- 74
2021-02-28 22:00:00 9.5 27 Sudeste 48 Sudeste 0 -- -- 78
2021-02-28 21:00:00 9.9 27 Sudeste 43 Sudeste 0.2 -- -- 85
2021-02-28 20:00:00 9.7 24 Sudeste 51 Sudeste 0.6 -- -- 90
2021-02-28 19:00:00 9.5 23 Sudeste 31 Sudeste 1.6 -- -- 90
2021-02-28 18:00:00 9.5 18 Sudeste 46 Sudeste 0.4 -- -- 89
2021-02-28 17:00:00 10.9 32 Sudeste 45 Sudeste 0 -- -- 80
2021-02-28 16:00:00 11.1 24 Sudeste 34 Sudeste 0 -- -- 80
2021-02-28 15:00:00 9.6 24 Sudeste 37 Sudeste 0.2 -- -- 84
2021-02-28 14:00:00 9.5 22 Sudeste 35 Sudeste 0 -- -- 86
2021-02-28 13:00:00 8.5 22 Sudeste 31 Sudeste 0 -- -- 88
2021-02-28 12:00:00 8 8 Sudeste 10 Sudeste 0 -- -- 88
2021-02-28 11:00:00 8.1 5 Nordeste 9 Noroeste 0 -- -- 84
2021-02-28 10:00:00 7.4 6 Noroeste 12 Noroeste 0 -- -- 86
2021-02-28 09:00:00 6.3 2 Noroeste 5 Noroeste 0 -- -- 92
2021-02-28 08:00:00 5.8 4 Noroeste 6 Noroeste 0 -- -- 92
2021-02-28 07:00:00 5.6 4 Oeste 7 Sudoeste 0 -- -- 90
2021-02-28 06:00:00 5.5 0 Calma 6 Oeste 0 -- -- 92
2021-02-28 05:00:00 5.4 4 Oeste 7 Noroeste 0 -- -- 87
2021-02-28 04:00:00 5 3 Noroeste 6 Oeste 0 -- -- 87
2021-02-28 03:00:00 4.5 6 Oeste 17 Oeste 0 -- -- 86
2021-02-28 02:00:00 3.8 8 Oeste 13 Oeste 0 -- -- 85
2021-02-28 01:00:00 4.9 3 Oeste 16 Oeste 0 -- -- 81
2021-02-28 00:00:00 5.4 5 Sudoeste 15 Noroeste 0 -- -- 79
2021-02-27 23:00:00 7.4 6 Oeste 35 Noroeste 0 -- -- 71
2021-02-27 22:00:00 7.8 20 Noroeste 31 Noroeste 0 -- -- 70
2021-02-27 21:00:00 7 15 Noroeste 26 Noroeste 0 -- -- 69
2021-02-27 20:00:00 7.6 9 Noroeste 22 Noroeste 0 -- -- 69
2021-02-27 19:00:00 10.3 20 Norte 36 Norte 0 -- -- 59
2021-02-27 18:00:00 12.6 15 Norte 29 Norte 0 -- -- 53
2021-02-27 17:00:00 14 19 Noroeste 46 Noroeste 0 -- -- 46
2021-02-27 16:00:00 14.4 25 Norte 44 Norte 0 -- -- 46
2021-02-27 15:00:00 14.8 23 Norte 36 Norte 0 -- -- 46
2021-02-27 14:00:00 14.7 23 Norte 32 Norte 0 -- -- 43
2021-02-27 13:00:00 14.3 25 Noroeste 36 Noroeste 0 -- -- 45
2021-02-27 12:00:00 12.9 18 Norte 30 Norte 0 -- -- 57
2021-02-27 11:00:00 12.2 17 Norte 24 Norte 0 -- -- 64
2021-02-27 10:00:00 10.4 13 Noroeste 23 Noroeste 0 -- -- 75
2021-02-27 09:00:00 7.3 11 Noroeste 19 Noroeste 0 -- -- 87
2021-02-27 08:00:00 5.8 9 Noroeste 18 Noroeste 0 -- -- 88
2021-02-27 07:00:00 6.5 13 Noroeste 22 Noroeste 0 -- -- 88
2021-02-27 06:00:00 6.1 4 Oeste 18 Noroeste 0 -- -- 90
2021-02-27 05:00:00 6.6 14 Noroeste 19 Noroeste 0 -- -- 88
2021-02-27 04:00:00 5.6 10 Noroeste 18 Oeste 0 -- -- 91
2021-02-27 03:00:00 6.4 11 Noroeste 16 Noroeste 0 -- -- 90
2021-02-27 02:00:00 6.5 10 Noroeste 18 Noroeste 0 -- -- 90
2021-02-27 01:00:00 6.8 12 Noroeste 17 Noroeste 0 -- -- 90
2021-02-27 00:00:00 6.9 11 Noroeste 15 Noroeste 0 -- -- 91
2021-02-26 23:00:00 7.7 10 Noroeste 14 Norte 0 -- -- 88
2021-02-26 22:00:00 9.3 12 Norte 27 Norte 0 -- -- 84
2021-02-26 21:00:00 9.9 13 Norte 28 Norte 0 -- -- 83
2021-02-26 20:00:00 11.4 17 Norte 28 Norte 0 -- -- 77
2021-02-26 19:00:00 13 14 Norte 22 Norte 0 -- -- 72
2021-02-26 18:00:00 15.1 12 Norte 18 Norte 0 -- -- 62
2021-02-26 17:00:00 16.6 9 Norte 15 Noroeste 0 -- -- 52
2021-02-26 16:00:00 16.8 8 Norte 19 Norte 0 -- -- 57
2021-02-26 15:00:00 16.3 7 Norte 15 Noroeste 0 -- -- 57
2021-02-26 14:00:00 15.2 6 Oeste 13 Oeste 0 -- -- 66
2021-02-26 13:00:00 14.4 8 Noroeste 19 Noroeste 0 -- -- 68
2021-02-26 12:00:00 13.5 11 Noroeste 18 Noroeste 0 -- -- 72
2021-02-26 11:00:00 11.6 9 Noroeste 16 Noroeste 0 -- -- 80
2021-02-26 10:00:00 8.5 4 Noroeste 10 Noroeste 0 -- -- 91
2021-02-26 09:00:00 6.1 5 Noroeste 9 Noroeste 0 -- -- 95
2021-02-26 08:00:00 5 8 Noroeste 13 Noroeste 0 -- -- 97
2021-02-26 07:00:00 4.9 7 Norte 10 Norte 0 -- -- 95
2021-02-26 06:00:00 5.7 3 Noroeste 6 Noroeste 0 -- -- 95
2021-02-26 05:00:00 6.5 3 Noroeste 9 Oeste 0 -- -- 93
2021-02-26 04:00:00 6.9 4 Noroeste 8 Noroeste 0 -- -- 93
2021-02-26 03:00:00 6.8 5 Noroeste 7 Oeste 0 -- -- 94
2021-02-26 02:00:00 6.9 5 Noroeste 9 Noroeste 0 -- -- 93
2021-02-26 01:00:00 6.5 6 Noroeste 9 Noroeste 0 -- -- 94
2021-02-26 00:00:00 6.7 9 Noroeste 12 Noroeste 0 -- -- 95
2021-02-25 23:00:00 7.1 9 Noroeste 11 Noroeste 0 -- -- 95
2021-02-25 22:00:00 8.1 4 Noroeste 7 Noroeste 0 -- -- 92
2021-02-25 21:00:00 9 4 Norte 6 Noroeste 0 -- -- 90
2021-02-25 20:00:00 9.7 6 Noroeste 8 Noroeste 0 -- -- 89
2021-02-25 19:00:00 11.4 2 Oeste 4 Sudoeste 0 -- -- 79
2021-02-25 18:00:00 12.4 3 Sur 10 Sur 0 -- -- 77
2021-02-25 17:00:00 13.2 8 Sur 17 Sur 0 -- -- 74
2021-02-25 16:00:00 13.7 12 Sur 23 Sudeste 0 -- -- 69
2021-02-25 15:00:00 13.6 17 Sudeste 26 Sur 0 -- -- 69
2021-02-25 14:00:00 13.2 18 Sudeste 29 Sudeste 0 -- -- 71
2021-02-25 13:00:00 12.5 18 Sur 37 Sudeste 0 -- -- 72
2021-02-25 12:00:00 10.9 21 Sudeste 31 Sudeste 0 -- -- 78
2021-02-25 11:00:00 9.5 18 Sudeste 24 Sudeste 0 -- -- 83
2021-02-25 10:00:00 8.5 12 Sudeste 22 Sudeste 0 -- -- 88
2021-02-25 09:00:00 7.3 6 Este 12 Este 0 -- -- 91
2021-02-25 08:00:00 7 5 Sur 36 Sudeste 0 -- -- 91
2021-02-25 07:00:00 7.5 28 Sudeste 42 Sudeste 0 -- -- 90
2021-02-25 06:00:00 7.6 28 Sudeste 44 Sudeste 0 -- -- 91
2021-02-25 05:00:00 7.8 33 Sudeste 49 Sudeste 0 -- -- 89
2021-02-25 04:00:00 8.3 38 Sudeste 58 Sudeste 0 -- -- 86
2021-02-25 03:00:00 9.6 41 Sudeste 56 Sudeste 0 -- -- 78
2021-02-25 02:00:00 9.2 17 Sudeste 30 Sudeste 0 -- -- 89
2021-02-25 01:00:00 10 17 Sudeste 31 Sudeste 0 -- -- 90
2021-02-25 00:00:00 10.2 17 Sudeste 23 Sudeste 0 -- -- 91
2021-02-24 23:00:00 10.3 19 Sudeste 26 Sudeste 0 -- -- 90
2021-02-24 22:00:00 10.4 16 Sudeste 23 Sudeste 0 -- -- 89
2021-02-24 21:00:00 11.3 13 Sudeste 31 Sudeste 0 -- -- 83
2021-02-24 20:00:00 12.3 22 Sudeste 38 Sudeste 0 -- -- 81
2021-02-24 19:00:00 13.3 28 Sudeste 49 Sudeste 0 -- -- 79
2021-02-24 18:00:00 14.3 39 Sudeste 57 Sudeste 0 -- -- 76
2021-02-24 17:00:00 15.1 44 Sudeste 59 Sudeste 0 -- -- 73
2021-02-24 16:00:00 15.5 44 Sudeste 62 Sudeste 0 -- -- 72
2021-02-24 15:00:00 15.3 41 Sudeste 53 Sudeste 0 -- -- 72
2021-02-24 14:00:00 14.3 35 Sudeste 59 Sudeste 0 -- -- 74
2021-02-24 13:00:00 13.6 40 Sudeste 52 Sudeste 0 -- -- 75
2021-02-24 12:00:00 11.8 26 Sudeste 50 Sudeste 0 -- -- 84
2021-02-24 11:00:00 11.3 31 Sudeste 45 Sudeste 0 -- -- 84
2021-02-24 10:00:00 10.3 22 Sudeste 31 Sur 0 -- -- 90
2021-02-24 09:00:00 8.3 24 Sudeste 31 Sudeste 0 -- -- 95
2021-02-24 08:00:00 7.2 17 Sudeste 23 Sudeste 0 -- -- 97
2021-02-24 07:00:00 7.7 17 Sudeste 37 Sudeste 0 -- -- 94
2021-02-24 06:00:00 8.3 28 Sudeste 37 Sudeste 0 -- -- 94
2021-02-24 05:00:00 8.5 26 Sudeste 39 Sudeste 0 -- -- 93
2021-02-24 04:00:00 8.2 23 Sudeste 33 Sudeste 0 -- -- 93
2021-02-24 03:00:00 8.1 17 Sur 29 Sudeste 0 -- -- 93
2021-02-24 02:00:00 8.2 15 Sudeste 22 Sudeste 0 -- -- 91
2021-02-24 01:00:00 8.7 16 Sudeste 26 Sudeste 0 -- -- 87
2021-02-24 00:00:00 8.3 17 Sudeste 21 Sudeste 0 -- -- 89
2021-02-23 23:00:00 9 13 Sudeste 27 Sudeste 0 -- -- 87
2021-02-23 22:00:00 9.3 15 Sudeste 24 Sudeste 0 -- -- 87
2021-02-23 21:00:00 9.7 8 Sudeste 31 Sudeste 0 -- -- 85
2021-02-23 20:00:00 11.2 22 Sudeste 36 Sudeste 0 -- -- 79
2021-02-23 19:00:00 12 26 Sudeste 35 Sudeste 0 -- -- 78
2021-02-23 18:00:00 13.3 26 Sudeste 52 Sudeste 0 -- -- 73
2021-02-23 17:00:00 14.2 36 Sudeste 54 Sudeste 0 -- -- 62
2021-02-23 16:00:00 14.5 36 Sudeste 56 Sudeste 0 -- -- 61
2021-02-23 15:00:00 15.1 31 Sudeste 51 Sur 0 -- -- 59
2021-02-23 14:00:00 14.5 28 Sudeste 51 Sudeste 0 -- -- 65
2021-02-23 13:00:00 13.2 31 Sudeste 50 Sudeste 0 -- -- 70
2021-02-23 12:00:00 11.8 32 Sudeste 47 Sudeste 0 -- -- 73
2021-02-23 11:00:00 10.2 27 Sudeste 38 Sudeste 0 -- -- 86
2021-02-23 10:00:00 8.4 7 Sur 22 Sudeste 0 -- -- 94
2021-02-23 09:00:00 6.5 12 Sudeste 17 Sudeste 0 -- -- 99
2021-02-23 08:00:00 5.2 4 Sur 18 Sudeste 0 -- -- 99
2021-02-23 07:00:00 5.2 9 Sudeste -- -- 0 -- -- 100
2021-02-23 06:00:00 5.2 12 Este 14 Este 0 -- -- 98
2021-02-23 05:00:00 6.3 4 Este 8 Este 0 -- -- 98
2021-02-23 04:00:00 5.8 2 Nordeste 5 Este 0 -- -- 98
2021-02-23 03:00:00 5.9 0 Calma 5 Sudoeste 0 -- -- 96
2021-02-23 02:00:00 6.4 8 Sudeste 15 Este 0 -- -- 95
2021-02-23 01:00:00 5.4 0 Calma 6 Oeste 0 -- -- 96
2021-02-23 00:00:00 6.1 0 Calma 7 Sudoeste 0 -- -- 95
2021-02-22 23:00:00 6.5 0 Calma 9 Noroeste 0 -- -- 93
2021-02-22 22:00:00 7.3 2 Noroeste 10 Oeste 0 -- -- 91
2021-02-22 21:00:00 7.3 2 Sudoeste 8 Oeste 0 -- -- 95
2021-02-22 20:00:00 7.4 3 Oeste 10 Sudoeste 0.2 -- -- 94
2021-02-22 19:00:00 7.6 9 Oeste 14 Oeste 0 -- -- 94
2021-02-22 18:00:00 7.9 4 Oeste 13 Oeste 0 -- -- 91
2021-02-22 17:00:00 7.8 7 Oeste 13 Oeste 0 -- -- 87
2021-02-22 16:00:00 7.4 3 Noroeste 7 Oeste 0 -- -- 89
2021-02-22 15:00:00 6.7 3 Noroeste 4 Noroeste 0 -- -- 87
2021-02-22 14:00:00 5.9 3 Oeste 9 Noroeste 0 -- -- 89
2021-02-22 13:00:00 4.8 6 Noroeste 12 Noroeste 0 -- -- 93
2021-02-22 12:00:00 4.4 7 Norte 13 Norte 0.2 -- -- 94
2021-02-22 11:00:00 3.9 10 Norte 15 Noroeste 0.6 -- -- 95
2021-02-22 10:00:00 4.1 5 Norte 13 Noroeste 1.6 -- -- 95
2021-02-22 09:00:00 4.2 7 Noroeste 13 Noroeste 0.8 -- -- 96
2021-02-22 08:00:00 4.2 10 Noroeste 21 Noroeste 0.8 -- -- 96
2021-02-22 07:00:00 4.2 15 Noroeste 26 Noroeste 2.6 -- -- 96
2021-02-22 06:00:00 5.1 19 Noroeste 36 Noroeste 6.6 -- -- 97
2021-02-22 05:00:00 5 25 Noroeste 47 Noroeste 10.8 -- -- 96
2021-02-22 04:00:00 7.1 25 Noroeste 35 Noroeste 2.4 -- -- 91
2021-02-22 03:00:00 10.3 9 Norte 19 Este 0.8 -- -- 89
2021-02-22 02:00:00 11 18 Sudeste 34 Sudeste 0.2 -- -- 82
2021-02-22 01:00:00 11.6 26 Sudeste 41 Este 0 -- -- 76
2021-02-22 00:00:00 12.2 28 Sudeste 59 Sudeste 0 -- -- 69
2021-02-21 23:00:00 12.5 29 Sudeste 52 Sudeste 0 -- -- 67
2021-02-21 22:00:00 12.4 32 Sudeste 56 Sudeste 0 -- -- 69
2021-02-21 21:00:00 12.8 44 Sudeste 72 Sudeste 0 -- -- 68
2021-02-21 20:00:00 12.8 34 Sudeste 51 Sudeste 0 -- -- 68
2021-02-21 19:00:00 12.5 26 Sudeste 42 Sudeste 0 -- -- 71
2021-02-21 18:00:00 12.4 27 Sudeste 39 Sudeste 0 -- -- 71
2021-02-21 17:00:00 12.2 26 Sudeste 41 Sudeste 0 -- -- 72
2021-02-21 16:00:00 12.1 24 Sudeste 33 Sudeste 0 -- -- 72
2021-02-21 15:00:00 11.1 13 Sudeste 41 Sudeste 0 -- -- 75
2021-02-21 14:00:00 11.7 33 Sudeste 45 Sudeste 0 -- -- 72
2021-02-21 13:00:00 12.5 29 Sur 49 Sudeste 0 -- -- 67
2021-02-21 12:00:00 12 20 Sur 29 Sur 0 -- -- 69
2021-02-21 11:00:00 11.1 23 Sur 42 Sur 0 -- -- 74
2021-02-21 10:00:00 10 35 Sur 45 Sur 0 -- -- 79
2021-02-21 09:00:00 7.8 24 Sur 38 Sur 0 -- -- 84
2021-02-21 08:00:00 7.7 24 Sur 44 Sur 0 -- -- 79
2021-02-21 07:00:00 8.4 37 Sudeste 57 Sudeste 0 -- -- 70
2021-02-21 06:00:00 7.7 32 Sudeste 42 Sudeste 0 -- -- 80
2021-02-21 05:00:00 8.1 31 Sudeste 49 Sudeste 0 -- -- 76
2021-02-21 04:00:00 9 36 Sudeste 77 Sudeste 0 -- -- 69
2021-02-21 03:00:00 10.5 59 Sudeste 77 Sudeste 0 -- -- 57
2021-02-21 02:00:00 10.6 51 Sudeste 71 Sudeste 0 -- -- 59
2021-02-21 01:00:00 10.8 42 Sudeste 59 Sudeste 0 -- -- 59
2021-02-21 00:00:00 11.3 43 Sudeste 60 Sudeste 0 -- -- 61
2021-02-20 23:00:00 12 45 Sudeste 63 Sudeste 0 -- -- 60
2021-02-20 22:00:00 12.5 39 Sudeste 50 Sudeste 0 -- -- 59
2021-02-20 21:00:00 12.8 30 Sudeste 49 Sudeste 0 -- -- 59
2021-02-20 20:00:00 13.8 39 Sudeste 53 Sudeste 0 -- -- 55
2021-02-20 19:00:00 15 39 Sudeste 59 Sudeste 0 -- -- 54
2021-02-20 18:00:00 15.6 39 Sudeste 65 Sudeste 0 -- -- 54
2021-02-20 17:00:00 16.1 41 Sudeste 59 Sudeste 0 -- -- 49
2021-02-20 16:00:00 18 39 Sudeste 64 Sudeste 0 -- -- 41
2021-02-20 15:00:00 17.1 39 Sudeste 66 Sudeste 0 -- -- 45
2021-02-20 14:00:00 16.9 49 Sudeste 73 Sudeste 0 -- -- 45
2021-02-20 13:00:00 16 44 Sudeste 60 Sudeste 0 -- -- 47
2021-02-20 12:00:00 14.6 37 Sudeste 60 Sudeste 0 -- -- 51
2021-02-20 11:00:00 12.6 32 Sudeste 49 Sudeste 0 -- -- 60
2021-02-20 10:00:00 10.1 35 Sudeste 47 Sudeste 0 -- -- 64
2021-02-20 09:00:00 9 31 Sudeste 47 Sudeste 0 -- -- 66
2021-02-20 08:00:00 8.4 31 Sudeste 41 Sudeste 0 -- -- 68
2021-02-20 07:00:00 8.1 19 Sudeste 38 Sudeste 0 -- -- 70
2021-02-20 06:00:00 8.1 31 Sudeste 42 Sudeste 0 -- -- 72
2021-02-20 05:00:00 8.8 28 Sudeste 49 Sudeste 0 -- -- 68
2021-02-20 04:00:00 10 37 Sudeste 53 Sudeste 0 -- -- 62
2021-02-20 03:00:00 10.2 39 Sudeste 51 Sudeste 0 -- -- 63
2021-02-20 02:00:00 10.4 32 Sudeste 50 Sudeste 0 -- -- 62
2021-02-20 01:00:00 10.4 26 Sudeste 42 Sudeste 0 -- -- 65
2021-02-20 00:00:00 11.1 29 Sudeste 47 Sudeste 0 -- -- 64
2021-02-19 23:00:00 11.5 29 Sudeste 41 Sudeste 0 -- -- 63
2021-02-19 22:00:00 12.2 32 Sudeste 46 Sudeste 0 -- -- 59
2021-02-19 21:00:00 12.6 33 Sudeste 48 Sudeste 0 -- -- 61
2021-02-19 20:00:00 12.9 31 Sudeste 54 Sudeste 0 -- -- 62
2021-02-19 19:00:00 14.5 35 Sudeste 49 Sudeste 0 -- -- 53
2021-02-19 18:00:00 15.7 34 Sudeste 51 Sudeste 0 -- -- 53
2021-02-19 17:00:00 17 36 Sudeste 55 Sudeste 0 -- -- 50
2021-02-19 16:00:00 17.5 39 Sudeste 57 Sudeste 0 -- -- 49
2021-02-19 15:00:00 17.4 42 Sudeste 54 Sudeste 0 -- -- 50
2021-02-19 14:00:00 16.6 38 Sudeste 53 Sudeste 0 -- -- 52
2021-02-19 13:00:00 15.5 32 Sudeste 45 Sudeste 0 -- -- 56
2021-02-19 12:00:00 14.3 28 Sudeste 44 Sudeste 0 -- -- 59
2021-02-19 11:00:00 12.2 28 Sudeste 42 Sudeste 0 -- -- 65
2021-02-19 10:00:00 10.4 13 Sudeste 21 Sur 0 -- -- 76
2021-02-19 09:00:00 7.5 2 Sudeste 21 Sudeste 0 -- -- 85
2021-02-19 08:00:00 7.4 14 Sudeste 26 Sudeste 0 -- -- 86
2021-02-19 07:00:00 7.2 0 Calma 27 Sudeste 0 -- -- 79
2021-02-19 06:00:00 8 20 Sudeste 28 Sudeste 0 -- -- 82
2021-02-19 05:00:00 7 12 Sudeste 20 Sudeste 0 -- -- 86
2021-02-19 04:00:00 6.8 7 Sudeste 17 Sudeste 0 -- -- 83
2021-02-19 03:00:00 6.9 11 Sudeste 16 Sudeste 0 -- -- 82
2021-02-19 02:00:00 7.5 3 Este 17 Este 0 -- -- 74
2021-02-19 01:00:00 7.4 5 Este 12 Este 0 -- -- 81
2021-02-19 00:00:00 7.8 2 Norte 10 Norte 0 -- -- 88
2021-02-18 23:00:00 9.5 5 Sudeste 12 Sudeste 0 -- -- 78
2021-02-18 22:00:00 10 4 Sur 12 Sudeste 0 -- -- 81
2021-02-18 21:00:00 11.7 2 Este 8 Noroeste 0 -- -- 75
2021-02-18 20:00:00 13 5 Sudeste 14 Este 0 -- -- 69
2021-02-18 19:00:00 14.3 4 Nordeste 7 Noroeste 0 -- -- 59
2021-02-18 18:00:00 16.4 2 Noroeste 5 Este 0 -- -- 52
2021-02-18 17:00:00 17.6 3 Sur 13 Sudeste 0 -- -- 49
2021-02-18 16:00:00 17.8 5 Sudeste 22 Sudeste 0 -- -- 53
2021-02-18 15:00:00 16.7 12 Sudeste 23 Sudeste 0 -- -- 55
2021-02-18 14:00:00 15.2 7 Sudeste 41 Sudeste 0 -- -- 59
2021-02-18 13:00:00 14.5 32 Sudeste 48 Sudeste 0 -- -- 62
2021-02-18 12:00:00 11.9 31 Sudeste 49 Sudeste 0 -- -- 73
2021-02-18 11:00:00 10.2 34 Sudeste 47 Sudeste 0 -- -- 79
2021-02-18 10:00:00 10.1 35 Sudeste 47 Sudeste 0 -- -- 77
2021-02-18 09:00:00 9.9 36 Sudeste 51 Sudeste 0 -- -- 77
2021-02-18 08:00:00 9.6 40 Sudeste 55 Sudeste 0 -- -- 79
2021-02-18 07:00:00 9.9 37 Sudeste 51 Sudeste 0 -- -- 79
2021-02-18 06:00:00 10.1 37 Sudeste 50 Sudeste 0 -- -- 79
2021-02-18 05:00:00 10.4 27 Sudeste 37 Sudeste 0 -- -- 81
2021-02-18 04:00:00 10.3 26 Sudeste 42 Sudeste 0 -- -- 83
2021-02-18 03:00:00 10.7 36 Sudeste 48 Sudeste 0 -- -- 81
2021-02-18 02:00:00 10.9 34 Sudeste 43 Sudeste 0 -- -- 80
2021-02-18 01:00:00 10.8 33 Sudeste 49 Sudeste 0 -- -- 81
2021-02-18 00:00:00 10.6 32 Sudeste 44 Sudeste 0 -- -- 84
2021-02-17 23:00:00 10.8 28 Sudeste 37 Sudeste 0 -- -- 84
2021-02-17 22:00:00 10.7 22 Sudeste 36 Sudeste 0 -- -- 84
2021-02-17 21:00:00 11.5 27 Sudeste 36 Sudeste 0 -- -- 81
2021-02-17 20:00:00 11.5 12 Sudeste 28 Sudeste 0 -- -- 78
2021-02-17 19:00:00 12.8 18 Sudeste 26 Sudeste 0 -- -- 74
2021-02-17 18:00:00 14.2 18 Sudeste 29 Sudeste 0 -- -- 72
2021-02-17 17:00:00 14.7 24 Sudeste 31 Sudeste 0 -- -- 66
2021-02-17 16:00:00 14.5 22 Sudeste 30 Sudeste 0 -- -- 70
2021-02-17 15:00:00 14.8 19 Sudeste 27 Sudeste 0 -- -- 70
2021-02-17 14:00:00 15 15 Sur 25 Sur 0 -- -- 71
2021-02-17 13:00:00 14.5 11 Sur 21 Sur 0 -- -- 73
2021-02-17 12:00:00 13.1 10 Sur 15 Sur 0 -- -- 80
2021-02-17 11:00:00 9.6 3 Sudeste 8 Sudeste 0 -- -- 90
2021-02-17 10:00:00 7.7 4 Sur 6 Sur 0 -- -- 96
2021-02-17 09:00:00 5 2 Sudeste 7 Nordeste 0 -- -- 98
2021-02-17 08:00:00 5.2 4 Nordeste 8 Noroeste 0 -- -- 98
2021-02-17 07:00:00 5.3 4 Norte 9 Noroeste 0 -- -- 98
2021-02-17 06:00:00 5.7 2 Norte 5 Noroeste 0 -- -- 99
2021-02-17 05:00:00 5.4 3 Norte 11 Noroeste 0 -- -- 98
2021-02-17 04:00:00 6 2 Sudeste 6 Sur 0 -- -- 98
2021-02-17 03:00:00 7.5 0 Calma 10 Sur 0 -- -- 96
2021-02-17 02:00:00 8.2 4 Oeste 6 Oeste 0 -- -- 96
2021-02-17 01:00:00 8.7 5 Norte 8 Norte 0 -- -- 95
2021-02-17 00:00:00 9.4 3 Nordeste 7 Noroeste 0 -- -- 92
2021-02-16 23:00:00 9.5 5 Norte 9 Noroeste 0 -- -- 91
2021-02-16 22:00:00 9.8 2 Sur 6 Oeste 0 -- -- 89
2021-02-16 21:00:00 10.3 2 Sudeste 5 Oeste 0 -- -- 87
2021-02-16 20:00:00 10.9 3 Noroeste 8 Noroeste 0 -- -- 85
2021-02-16 19:00:00 12.3 3 Oeste 8 Noroeste 0 -- -- 79
2021-02-16 18:00:00 13.1 6 Noroeste 8 Noroeste 0 -- -- 79
2021-02-16 17:00:00 13.7 5 Noroeste 16 Noroeste 0 -- -- 71
2021-02-16 16:00:00 14.1 7 Noroeste 13 Sudeste 0 -- -- 70
2021-02-16 15:00:00 14.1 5 Sudeste 22 Sudeste 0 -- -- 68
2021-02-16 14:00:00 14.1 14 Sur 33 Sudeste 0 -- -- 72
2021-02-16 13:00:00 12.7 25 Sudeste 48 Sudeste 0 -- -- 75
2021-02-16 12:00:00 11.3 35 Sudeste 48 Sudeste 0 -- -- 79
2021-02-16 11:00:00 9.4 29 Sudeste 50 Sudeste 0 -- -- 86
2021-02-16 10:00:00 8.8 28 Sudeste 41 Sudeste 0 -- -- 87
2021-02-16 09:00:00 7.6 29 Sudeste 40 Sudeste 0 -- -- 91
2021-02-16 08:00:00 7.6 29 Sudeste 44 Sudeste 0 -- -- 90
2021-02-16 07:00:00 7.7 26 Sudeste 38 Sudeste 0 -- -- 91
2021-02-16 06:00:00 7.6 25 Sudeste 42 Sudeste 0 -- -- 91
2021-02-16 05:00:00 7.5 28 Sudeste 39 Sudeste 0 -- -- 91
2021-02-16 04:00:00 7.5 27 Sudeste 44 Sudeste 0 -- -- 91
2021-02-16 03:00:00 7.8 30 Sudeste 45 Sudeste 0 -- -- 89
2021-02-16 02:00:00 7.9 36 Sudeste 50 Sudeste 0 -- -- 88
2021-02-16 01:00:00 8.2 31 Sudeste 43 Sudeste 0 -- -- 88
2021-02-16 00:00:00 8.6 30 Sudeste 41 Sudeste 0 -- -- 84
2021-02-15 23:00:00 8.4 31 Sudeste 43 Sudeste 0 -- -- 85
2021-02-15 22:00:00 8.2 26 Sudeste 42 Sudeste 0 -- -- 86
2021-02-15 21:00:00 7.5 24 Sudeste 39 Sudeste 0 -- -- 90
2021-02-15 20:00:00 7.6 21 Sudeste 38 Sudeste 0 -- -- 88
2021-02-15 19:00:00 8.5 25 Sudeste 37 Sudeste 0 -- -- 86
2021-02-15 18:00:00 9.9 19 Sudeste 31 Sudeste 0 -- -- 80
2021-02-15 17:00:00 10.2 22 Sudeste 35 Sudeste 0 -- -- 79
2021-02-15 16:00:00 10.5 23 Sudeste 33 Sudeste 0 -- -- 77
2021-02-15 15:00:00 9.8 22 Sudeste 35 Sudeste 0 -- -- 82
2021-02-15 14:00:00 10 23 Sudeste 36 Sudeste 0 -- -- 79
2021-02-15 13:00:00 8.9 22 Sudeste 36 Sudeste 0 -- -- 82
2021-02-15 12:00:00 7.6 27 Sudeste 35 Sudeste 0 -- -- 87
2021-02-15 11:00:00 7.1 23 Sudeste 35 Sudeste 0 -- -- 88
2021-02-15 10:00:00 6.9 22 Sudeste 32 Sudeste 0 -- -- 88
2021-02-15 09:00:00 6.5 18 Sudeste 33 Sudeste 0 -- -- 89
2021-02-15 08:00:00 6.3 24 Sudeste 39 Sudeste 0 -- -- 89
2021-02-15 07:00:00 6.4 26 Sudeste 37 Sudeste 0 -- -- 88
2021-02-15 06:00:00 6.4 24 Sudeste 38 Sudeste 0 -- -- 88
2021-02-15 05:00:00 6.6 24 Sudeste 40 Sudeste 0 -- -- 87
2021-02-15 04:00:00 6.8 24 Sudeste 41 Sudeste 0 -- -- 86
2021-02-15 03:00:00 6.9 27 Sudeste 36 Sudeste 0 -- -- 86
2021-02-15 02:00:00 7.2 20 Sudeste 35 Sudeste 0 -- -- 86
2021-02-15 01:00:00 7.5 25 Sudeste 39 Sudeste 0 -- -- 87
2021-02-15 00:00:00 7.8 29 Sudeste 45 Sudeste 0 -- -- 86
2021-02-14 23:00:00 8 31 Sudeste 46 Sudeste 0 -- -- 88
2021-02-14 22:00:00 8 34 Sudeste 49 Sudeste 0 -- -- 88
2021-02-14 21:00:00 8.6 28 Sudeste 40 Sudeste 0 -- -- 87
2021-02-14 20:00:00 9.3 23 Sudeste 39 Sudeste 0 -- -- 84
2021-02-14 19:00:00 10.3 26 Sudeste 45 Sudeste 0 -- -- 79
2021-02-14 18:00:00 11.1 31 Sudeste 50 Sudeste 0 -- -- 75
2021-02-14 17:00:00 12.1 36 Sudeste 53 Sudeste 0 -- -- 70
2021-02-14 16:00:00 13 36 Sudeste 54 Sudeste 0 -- -- 69
2021-02-14 15:00:00 13 37 Sudeste 55 Sudeste 0 -- -- 69
2021-02-14 14:00:00 12.8 35 Sudeste 49 Sudeste 0 -- -- 68
2021-02-14 13:00:00 12.2 36 Sudeste 48 Sudeste 0 -- -- 69
2021-02-14 12:00:00 11 23 Sudeste 33 Sudeste 0 -- -- 78
2021-02-14 11:00:00 7 4 Este 9 Este 0 -- -- 91
2021-02-14 10:00:00 3.3 3 Noroeste 6 Noroeste 0 -- -- 99
2021-02-14 09:00:00 2.7 3 Nordeste 7 Nordeste 0 -- -- 99
2021-02-14 08:00:00 1.3 4 Norte 9 Noroeste 0 -- -- 99
2021-02-14 07:00:00 1.3 6 Norte 9 Noroeste 0 -- -- 98
2021-02-14 06:00:00 1.7 3 Noroeste 6 Noroeste 0 -- -- 97
2021-02-14 05:00:00 2.8 3 Sudeste 10 Este 0 -- -- 96
2021-02-14 04:00:00 2.9 3 Este 9 Oeste 0 -- -- 95
2021-02-14 03:00:00 3.4 6 Oeste 13 Noroeste 0 -- -- 93
2021-02-14 02:00:00 4.9 3 Oeste 14 Norte 0 -- -- 90
2021-02-14 01:00:00 5.1 11 Norte 13 Norte 0 -- -- 89
2021-02-14 00:00:00 4.9 10 Norte 12 Noroeste 0 -- -- 91
2021-02-13 23:00:00 5.8 0 Calma 10 Noroeste 0 -- -- 87
2021-02-13 22:00:00 6.7 8 Norte 11 Norte 0 -- -- 84
2021-02-13 21:00:00 7.2 9 Norte 17 Noroeste 0 -- -- 82
2021-02-13 20:00:00 8.4 8 Noroeste 14 Noroeste 0 -- -- 78
2021-02-13 19:00:00 10.2 8 Noroeste 14 Noroeste 0 -- -- 72
2021-02-13 18:00:00 11.8 14 Noroeste 22 Noroeste 0 -- -- 68
2021-02-13 17:00:00 12.4 15 Oeste 21 Noroeste 0 -- -- 71
2021-02-13 16:00:00 12.3 13 Oeste 26 Oeste 0 -- -- 71
2021-02-13 15:00:00 12 9 Oeste 23 Oeste 0 -- -- 74
2021-02-13 14:00:00 12.6 11 Oeste 23 Oeste 0 -- -- 72
2021-02-13 13:00:00 12 4 Sudoeste 9 Oeste 0 -- -- 76
2021-02-13 08:00:00 5 4 Noroeste 11 Noroeste 0 -- -- 93
2021-02-13 07:00:00 5.7 4 Norte 10 Noroeste 0 -- -- 90
2021-02-13 06:00:00 5.3 8 Noroeste 10 Noroeste 0 -- -- 89
2021-02-13 05:00:00 6.4 3 Sudoeste 17 Oeste 0 -- -- 87
2021-02-13 04:00:00 7 4 Sudoeste 20 Oeste 0 -- -- 82
2021-02-13 03:00:00 7.4 17 Oeste 22 Oeste 0 -- -- 84
2021-02-13 02:00:00 8.7 13 Oeste 17 Oeste 0 -- -- 79
2021-02-13 01:00:00 10 13 Oeste 32 Noroeste 0 -- -- 75
2021-02-13 00:00:00 9.7 12 Oeste 32 Oeste 0 -- -- 79
2021-02-12 23:00:00 9.4 4 Oeste 27 Noroeste 0 -- -- 79
2021-02-12 22:00:00 10 18 Noroeste 27 Norte 0 -- -- 77
2021-02-12 21:00:00 10 3 Oeste 44 Noroeste 0 -- -- 78
2021-02-12 20:00:00 10.8 37 Noroeste 53 Noroeste 0 -- -- 74
2021-02-12 19:00:00 11.3 33 Oeste 48 Oeste 0 -- -- 76
2021-02-12 18:00:00 11.4 20 Oeste 33 Oeste 0 -- -- 81
2021-02-12 17:00:00 11.1 23 Noroeste 36 Noroeste 0.8 -- -- 86
2021-02-12 16:00:00 12 20 Oeste 41 Oeste 0 -- -- 81
2021-02-12 15:00:00 13.1 28 Oeste 41 Oeste 0 -- -- 75
2021-02-12 14:00:00 12.1 26 Oeste 43 Oeste 0 -- -- 80
2021-02-12 13:00:00 11.4 22 Oeste 35 Oeste 0 -- -- 82
2021-02-12 12:00:00 11.4 14 Oeste 32 Oeste 0 -- -- 87
2021-02-12 11:00:00 10.6 8 Oeste 18 Oeste 0.2 -- -- 93
2021-02-12 10:00:00 9.7 0 Calma 8 Noroeste 0.2 -- -- 97
2021-02-12 09:00:00 9.2 4 Noroeste 7 Oeste 0.2 -- -- 96
2021-02-12 08:00:00 9.5 6 Este 15 Este 0.2 -- -- 95
2021-02-12 07:00:00 10 8 Este 10 Este 0.8 -- -- 91
2021-02-12 06:00:00 10.2 5 Noroeste 29 Sudeste 0 -- -- 88
2021-02-12 05:00:00 10.7 23 Sudeste 40 Sudeste 0 -- -- 85
2021-02-12 04:00:00 10.1 10 Sudeste 19 Sudeste 0 -- -- 88
2021-02-12 03:00:00 9.6 5 Sudeste 17 Sudeste 0 -- -- 88
2021-02-12 02:00:00 8.9 2 Nordeste 10 Este 0 -- -- 90
2021-02-12 01:00:00 8.9 5 Nordeste 12 Este 0 -- -- 90
2021-02-12 00:00:00 8.4 4 Noroeste 8 Noroeste 0 -- -- 91
2021-02-11 23:00:00 9 0 Calma 7 Norte 0 -- -- 91
2021-02-11 22:00:00 10.2 0 Calma 7 Norte 0 -- -- 86
2021-02-11 21:00:00 10.6 4 Norte 11 Noroeste 0 -- -- 86
2021-02-11 20:00:00 11.4 0 Calma 14 Sudeste 0 -- -- 81
2021-02-11 19:00:00 11.6 13 Sudeste 15 Este 0 -- -- 81
2021-02-11 18:00:00 13.4 8 Sudeste 18 Sudeste 0 -- -- 76
2021-02-11 17:00:00 14.8 12 Este 16 Este 0 -- -- 68
2021-02-11 16:00:00 14.9 10 Sudeste 15 Sudeste 0 -- -- 66
2021-02-11 15:00:00 15 5 Sudeste 15 Sur 0 -- -- 63
2021-02-11 14:00:00 14.3 7 Sur 16 Sur 0 -- -- 67
2021-02-11 13:00:00 13.1 6 Sur 13 Sur 0 -- -- 67
2021-02-11 12:00:00 11.1 3 Sudeste 7 Este 0 -- -- 72
2021-02-11 11:00:00 7.7 4 Noroeste 6 Norte 0 -- -- 85
2021-02-11 10:00:00 5.4 3 Este 5 Nordeste 0 -- -- 95
2021-02-11 09:00:00 3.7 0 Calma 4 Oeste 0 -- -- 98
2021-02-11 08:00:00 3.1 3 Noroeste 8 Noroeste 0 -- -- 98
2021-02-11 07:00:00 3 2 Norte 6 Oeste 0 -- -- 98
2021-02-11 06:00:00 2.5 2 Noroeste 6 Oeste 0 -- -- 97
2021-02-11 05:00:00 3.1 0 Calma 8 Noroeste 0 -- -- 97
2021-02-11 04:00:00 3.5 0 Calma 5 Noroeste 0 -- -- 97
2021-02-11 03:00:00 3 3 Norte 8 Noroeste 0 -- -- 97
2021-02-11 02:00:00 3.2 2 Nordeste 8 Este 0 -- -- 97
2021-02-11 01:00:00 2.7 0 Calma 6 Sur 0 -- -- 95
2021-02-11 00:00:00 3.8 3 Noroeste 6 Noroeste 0 -- -- 94
2021-02-10 23:00:00 4.3 6 Noroeste 8 Noroeste 0 -- -- 92
2021-02-10 22:00:00 5.6 0 Calma 7 Norte 0 -- -- 87
2021-02-10 21:00:00 7.3 2 Norte 8 Norte 0 -- -- 81
2021-02-10 20:00:00 8.5 8 Norte 15 Nordeste 0 -- -- 76
2021-02-10 19:00:00 9.7 4 Norte 12 Norte 0 -- -- 70
2021-02-10 18:00:00 10.7 7 Norte 26 Noroeste 0 -- -- 66
2021-02-10 17:00:00 11.5 18 Noroeste 27 Noroeste 0 -- -- 62
2021-02-10 16:00:00 11.5 18 Noroeste 34 Oeste 0 -- -- 64
2021-02-10 15:00:00 11.1 19 Oeste 39 Noroeste 0 -- -- 62
2021-02-10 14:00:00 11.4 28 Oeste 40 Oeste 0 -- -- 65
2021-02-10 13:00:00 9.9 17 Oeste 30 Oeste 0 -- -- 70
2021-02-10 12:00:00 9 4 Sudoeste 16 Oeste 0 -- -- 79
2021-02-10 11:00:00 7 3 Sur 9 Sur 0 -- -- 90
2021-02-10 10:00:00 5.8 2 Sudoeste 7 Oeste 0 -- -- 94
2021-02-10 09:00:00 5 4 Noroeste 12 Norte 0 -- -- 96
2021-02-10 08:00:00 4.6 8 Norte 19 Oeste 1.6 -- -- 96
2021-02-10 07:00:00 4.7 14 Noroeste 20 Oeste 3.2 -- -- 97
2021-02-10 06:00:00 4.2 3 Norte 6 Oeste 1.8 -- -- 95
2021-02-10 05:00:00 4 2 Oeste 12 Sudeste 0 -- -- 91
2021-02-10 04:00:00 4.2 9 Sur 17 Este 0 -- -- 91
2021-02-10 03:00:00 4.3 16 Este 18 Este 0 -- -- 92
2021-02-10 02:00:00 4.1 3 Sudeste 12 Este 0 -- -- 93
2021-02-10 01:00:00 4.4 4 Este 12 Este 0 -- -- 91
2021-02-10 00:00:00 5.3 3 Sudeste 20 Sudeste 0 -- -- 92
2021-02-09 23:00:00 6.6 13 Sudeste 22 Sudeste 0 -- -- 89
2021-02-09 22:00:00 6.6 12 Sudeste 17 Sudeste 0 -- -- 94
2021-02-09 21:00:00 6.5 12 Sudeste 16 Sudeste 0 -- -- 94
2021-02-09 20:00:00 6.6 12 Sudeste 19 Sudeste 0 -- -- 94
2021-02-09 19:00:00 6.6 5 Sur 15 Sudeste 0 -- -- 87
2021-02-09 18:00:00 8 3 Oeste 11 Este 0 -- -- 79
2021-02-09 17:00:00 7.9 2 Sudoeste 25 Sudoeste 0 -- -- 86
2021-02-09 16:00:00 8.2 12 Sudoeste 48 Sudeste 1 -- -- 86
2021-02-09 15:00:00 9.7 40 Sudeste 57 Sudeste 0 -- -- 77
2021-02-09 14:00:00 9.6 37 Sudeste 54 Sudeste 0 -- -- 76
2021-02-09 13:00:00 9.8 36 Sudeste 55 Sudeste 0 -- -- 75
2021-02-09 12:00:00 9.8 37 Sudeste 54 Sudeste 0 -- -- 73
2021-02-09 11:00:00 9.3 32 Sudeste 46 Sudeste 0 -- -- 72
2021-02-09 10:00:00 7.9 28 Sudeste 44 Sudeste 0 -- -- 79
2021-02-09 09:00:00 6.4 16 Sudeste 23 Sudeste 0 -- -- 85
2021-02-09 08:00:00 5.9 10 Este 16 Este 0 -- -- 90
2021-02-09 07:00:00 5.9 10 Sudeste 18 Este 0 -- -- 91
2021-02-09 06:00:00 5.5 6 Este 15 Este 0 -- -- 91
2021-02-09 05:00:00 5.3 6 Sur 13 Sudeste 0 -- -- 91
2021-02-09 04:00:00 5.3 5 Sur 13 Sudeste 0 -- -- 90
2021-02-09 03:00:00 5.4 3 Nordeste 6 Sur 0 -- -- 87
2021-02-09 02:00:00 6.1 3 Sur 8 Sudoeste 0 -- -- 84
2021-02-09 01:00:00 6.9 2 Sudoeste 27 Oeste 0 -- -- 82
2021-02-09 00:00:00 7.3 3 Norte 6 Sudoeste 0 -- -- 83
2021-02-08 23:00:00 7.6 4 Sudoeste 9 Noroeste 0 -- -- 81
2021-02-08 22:00:00 7.3 7 Noroeste 19 Noroeste 0 -- -- 84
2021-02-08 21:00:00 7.2 9 Noroeste 15 Oeste 0 -- -- 83
2021-02-08 20:00:00 8.6 8 Oeste 27 Oeste 0 -- -- 76
2021-02-08 19:00:00 9.6 15 Oeste 31 Oeste 0 -- -- 69
2021-02-08 18:00:00 10.6 12 Oeste 39 Oeste 0 -- -- 69
2021-02-08 17:00:00 11.5 21 Oeste 39 Oeste 0 -- -- 64
2021-02-08 16:00:00 10.8 32 Oeste 55 Oeste 0 -- -- 66
2021-02-08 15:00:00 12.4 31 Oeste 43 Oeste 0 -- -- 58
2021-02-08 14:00:00 12.7 23 Oeste 41 Oeste 0 -- -- 59
2021-02-08 13:00:00 11.1 22 Oeste 49 Oeste 0 -- -- 67
2021-02-08 12:00:00 8.8 7 Sur 13 Sur 0 -- -- 87
2021-02-08 11:00:00 6.7 4 Sur 10 Sur 0 -- -- 91
2021-02-08 10:00:00 5.8 4 Sudoeste 9 Oeste 0 -- -- 97
2021-02-08 09:00:00 5.5 3 Norte 9 Norte 0 -- -- 97
2021-02-08 08:00:00 5.5 4 Noroeste 7 Noroeste 0 -- -- 95
2021-02-08 07:00:00 5.2 4 Oeste 6 Oeste 0 -- -- 97
2021-02-08 06:00:00 5.1 6 Noroeste 9 Noroeste 0 -- -- 97
2021-02-08 05:00:00 5.1 0 Calma 5 Sudoeste 0 -- -- 95
2021-02-08 04:00:00 5.2 0 Calma 12 Sudeste 0 -- -- 95
2021-02-08 03:00:00 5.3 10 Sudeste 15 Sudeste 0 -- -- 94
2021-02-08 02:00:00 5.4 12 Sudeste 17 Sudeste 0.2 -- -- 95
2021-02-08 01:00:00 5.5 6 Sudeste 11 Sudeste 0 -- -- 95
2021-02-08 00:00:00 5.4 8 Sudeste 9 Sudeste 0 -- -- 95
2021-02-07 23:00:00 6.2 3 Este 6 Oeste 0.2 -- -- 91
2021-02-07 22:00:00 6.4 5 Oeste 21 Oeste 0.2 -- -- 89
2021-02-07 21:00:00 7.1 11 Oeste 21 Oeste 0 -- -- 80
2021-02-07 20:00:00 7.5 6 Sudoeste 21 Oeste 0 -- -- 77
2021-02-07 19:00:00 7.9 3 Sur 10 Noroeste 0 -- -- 69
2021-02-07 18:00:00 8.2 9 Noroeste 23 Oeste 0 -- -- 68
2021-02-07 17:00:00 9.2 17 Noroeste 22 Noroeste 0 -- -- 62
2021-02-07 16:00:00 10 14 Oeste 27 Oeste 0 -- -- 54
2021-02-07 15:00:00 9.8 10 Noroeste 19 Oeste 0 -- -- 60
2021-02-07 14:00:00 9 15 Noroeste 28 Oeste 0 -- -- 63
2021-02-07 13:00:00 8.4 21 Oeste 37 Oeste 0 -- -- 64
2021-02-07 12:00:00 8 24 Oeste 38 Oeste 0 -- -- 66
2021-02-07 11:00:00 7.2 19 Oeste 30 Oeste 0 -- -- 73
2021-02-07 10:00:00 4.9 10 Oeste 26 Oeste 0 -- -- 83
2021-02-07 09:00:00 3.9 16 Oeste 26 Oeste 0 -- -- 86
2021-02-07 08:00:00 3.6 8 Oeste 26 Oeste 0 -- -- 89
2021-02-07 07:00:00 4.2 19 Oeste 27 Oeste 0 -- -- 83
2021-02-07 06:00:00 4.3 12 Oeste 24 Oeste 0 -- -- 85
2021-02-07 05:00:00 3.7 15 Oeste 22 Oeste 0 -- -- 86
2021-02-07 04:00:00 4.1 5 Oeste 26 Oeste 0 -- -- 85
2021-02-07 03:00:00 4.3 19 Oeste 27 Oeste 0 -- -- 85
2021-02-07 02:00:00 4.1 5 Oeste 22 Noroeste 0 -- -- 84
2021-02-07 01:00:00 4.7 12 Oeste 26 Noroeste 0 -- -- 85
2021-02-07 00:00:00 5.6 17 Noroeste 27 Noroeste 0 -- -- 82
2021-02-06 23:00:00 5.9 15 Oeste 25 Oeste 0.4 -- -- 87
2021-02-06 22:00:00 6.2 14 Oeste 24 Noroeste 0 -- -- 89
2021-02-06 21:00:00 6.6 14 Oeste 19 Noroeste 0 -- -- 85
2021-02-06 20:00:00 6.8 14 Oeste 29 Oeste 0 -- -- 85
2021-02-06 19:00:00 7.1 15 Oeste 24 Oeste 0 -- -- 85
2021-02-06 18:00:00 7.5 19 Oeste 27 Oeste 0.2 -- -- 89
2021-02-06 17:00:00 8.1 17 Oeste 28 Oeste 0.2 -- -- 91
2021-02-06 16:00:00 8.2 18 Oeste 34 Oeste 0.2 -- -- 91
2021-02-06 15:00:00 8.7 15 Oeste 30 Oeste 0.8 -- -- 94
2021-02-06 14:00:00 8.7 9 Sudoeste 28 Sudoeste 1.4 -- -- 96
2021-02-06 13:00:00 8.6 7 Sudoeste 22 Sudoeste 2.2 -- -- 97
2021-02-06 12:00:00 9 13 Sur 19 Sur 2.2 -- -- 98
2021-02-06 11:00:00 9.1 10 Sur 15 Sudeste 1 -- -- 98
2021-02-06 10:00:00 8.9 9 Sudeste 14 Sudeste 1.4 -- -- 98
2021-02-06 09:00:00 8.6 7 Sudeste 11 Sudeste 0.8 -- -- 98
2021-02-06 08:00:00 8.2 6 Nordeste 11 Nordeste 0.8 -- -- 98
2021-02-06 07:00:00 8.1 4 Norte 5 Oeste 1.4 -- -- 97
2021-02-06 06:00:00 8.2 2 Noroeste 8 Noroeste 0.2 -- -- 96
2021-02-06 05:00:00 8 4 Noroeste 7 Noroeste 0 -- -- 95
2021-02-06 04:00:00 8.3 4 Nordeste 13 Nordeste 0 -- -- 94
2021-02-06 03:00:00 8.4 6 Nordeste 10 Sudeste 0 -- -- 94
2021-02-06 02:00:00 8 7 Norte 12 Norte 0 -- -- 95
2021-02-06 01:00:00 7.5 2 Sur 7 Noroeste 0 -- -- 93
2021-02-06 00:00:00 8.3 3 Norte 8 Sudoeste 0 -- -- 92
2021-02-05 23:00:00 8.8 8 Sudeste 14 Sudeste 0 -- -- 89
2021-02-05 22:00:00 8.7 7 Norte 9 Norte 0 -- -- 93
2021-02-05 21:00:00 9.1 0 Calma 6 Noroeste 0 -- -- 92
2021-02-05 20:00:00 9.6 6 Noroeste 8 Noroeste 0 -- -- 90
2021-02-05 19:00:00 10.8 2 Oeste 5 Sudoeste 0 -- -- 85
2021-02-05 18:00:00 11.9 4 Sudoeste 17 Sur 0 -- -- 80
2021-02-05 17:00:00 13.8 12 Sur 28 Sudeste 0 -- -- 73
2021-02-05 16:00:00 14.9 19 Sur 34 Sudeste 0 -- -- 69
2021-02-05 15:00:00 15.6 23 Sudeste 40 Sudeste 0 -- -- 65
2021-02-05 14:00:00 15.5 31 Sudeste 43 Sudeste 0 -- -- 65
2021-02-05 13:00:00 15.4 24 Sudeste 32 Sudeste 0 -- -- 65
2021-02-05 12:00:00 13 0 Calma 9 Noroeste 0 -- -- 77
2021-02-05 11:00:00 11 3 Sur 8 Sur 0 -- -- 86
2021-02-05 10:00:00 8.4 2 Oeste 9 Noroeste 0 -- -- 94
2021-02-05 09:00:00 6.9 7 Norte 10 Noroeste 0 -- -- 95
2021-02-05 08:00:00 7.9 5 Norte 9 Nordeste 0 -- -- 94
2021-02-05 07:00:00 8.1 6 Norte 10 Norte 0 -- -- 94
2021-02-05 06:00:00 7.9 6 Noroeste 11 Noroeste 0 -- -- 95
2021-02-05 05:00:00 8.1 5 Noroeste 15 Nordeste 0 -- -- 93
2021-02-05 04:00:00 9.1 6 Nordeste 9 Nordeste 0 -- -- 90
2021-02-05 03:00:00 9.2 4 Sudoeste 16 Sudeste 0 -- -- 89
2021-02-05 02:00:00 9.3 3 Nordeste 26 Sudeste 0 -- -- 87
2021-02-05 01:00:00 9.9 17 Sur 33 Sudeste 0 -- -- 85
2021-02-05 00:00:00 10.8 26 Sudeste 35 Sudeste 0 -- -- 80
2021-02-04 23:00:00 11.1 27 Sudeste 36 Sudeste 0 -- -- 81
2021-02-04 22:00:00 11.2 20 Sudeste 26 Sudeste 0 -- -- 82
2021-02-04 21:00:00 11.6 13 Sudeste 20 Sudeste 0 -- -- 81
2021-02-04 20:00:00 13.1 12 Sudeste 26 Sudeste 0 -- -- 74
2021-02-04 19:00:00 13.5 11 Sudeste 28 Sudeste 0 -- -- 73
2021-02-04 18:00:00 14.8 25 Sudeste 37 Sudeste 0 -- -- 65
2021-02-04 17:00:00 15.5 24 Sudeste 40 Sudeste 0 -- -- 63
2021-02-04 16:00:00 16.7 25 Sudeste 36 Este 0 -- -- 59
2021-02-04 15:00:00 16.8 19 Sudeste 30 Sudeste 0 -- -- 63
2021-02-04 14:00:00 15.2 5 Sudeste 13 Sur 0 -- -- 69
2021-02-04 13:00:00 14.5 6 Sur 18 Sudeste 0 -- -- 74
2021-02-04 12:00:00 13.4 11 Sudeste 17 Sudeste 0 -- -- 76
2021-02-04 11:00:00 11.5 0 Calma 6 Noroeste 0 -- -- 84
2021-02-04 10:00:00 9.8 2 Noroeste 6 Sur 0 -- -- 91
2021-02-04 09:00:00 8.9 2 Sur 8 Sudeste 0 -- -- 92
2021-02-04 08:00:00 9.5 2 Este 9 Este 0 -- -- 89
2021-02-04 07:00:00 9.4 3 Sudeste 9 Noroeste 0 -- -- 90
2021-02-04 06:00:00 9.1 3 Sudeste 8 Noroeste 0 -- -- 92
2021-02-04 05:00:00 9.3 2 Oeste 3 Oeste 0 -- -- 90
2021-02-04 04:00:00 9.4 2 Noroeste 12 Este 0 -- -- 90
2021-02-04 03:00:00 9.9 2 Sudeste 8 Sudeste 0 -- -- 88
2021-02-04 02:00:00 9.2 0 Calma 6 Sur 0 -- -- 90
2021-02-04 01:00:00 10 4 Sudeste 23 Sudeste 0 -- -- 86
2021-02-04 00:00:00 9.7 2 Oeste 22 Sudeste 0 -- -- 92
2021-02-03 23:00:00 9.6 13 Sudeste 19 Sudeste 0 -- -- 95
2021-02-03 22:00:00 9.9 0 Calma 8 Nordeste 0 -- -- 93
2021-02-03 21:00:00 10.6 6 Nordeste 14 Noroeste 0.2 -- -- 92
2021-02-03 20:00:00 11.1 13 Noroeste 17 Noroeste 0 -- -- 90
2021-02-03 19:00:00 11.8 8 Noroeste 12 Noroeste 0 -- -- 87
2021-02-03 18:00:00 13.8 9 Norte 13 Norte 0 -- -- 75
2021-02-03 17:00:00 15 0 Calma 10 Norte 0 -- -- 66
2021-02-03 16:00:00 15.7 4 Norte 16 Nordeste 0 -- -- 62
2021-02-03 15:00:00 14.2 7 Nordeste 17 Nordeste 0 -- -- 71
2021-02-03 14:00:00 13.8 8 Norte 22 Este 0 -- -- 72
2021-02-03 13:00:00 13.9 17 Este 30 Este 0 -- -- 68
2021-02-03 12:00:00 12.5 19 Este 29 Este 0 -- -- 73
2021-02-03 11:00:00 11.5 19 Sudeste 37 Sudeste 0 -- -- 74
2021-02-03 10:00:00 10.8 26 Sudeste 38 Sudeste 0 -- -- 75
2021-02-03 09:00:00 9.9 31 Sudeste 40 Sudeste 0 -- -- 76
2021-02-03 08:00:00 9.3 27 Sudeste 43 Sudeste 0 -- -- 78
2021-02-03 07:00:00 9.2 34 Sudeste 45 Sudeste 0 -- -- 79
2021-02-03 06:00:00 9.6 32 Sudeste 45 Sudeste 0 -- -- 78
2021-02-03 05:00:00 9.3 26 Sudeste 42 Sudeste 0 -- -- 81
2021-02-03 04:00:00 9.7 30 Sudeste 46 Sudeste 0 -- -- 80
2021-02-03 03:00:00 9.6 26 Sudeste 39 Sudeste 0 -- -- 82
2021-02-03 02:00:00 9.8 27 Sudeste 40 Sudeste 0 -- -- 82
2021-02-03 01:00:00 9.9 30 Sudeste 36 Sudeste 0 -- -- 82
2021-02-03 00:00:00 10 22 Sudeste 35 Sudeste 0 -- -- 83
2021-02-02 23:00:00 11 12 Sudeste 24 Sudeste 0 -- -- 76
2021-02-02 22:00:00 10.9 18 Sudeste 26 Sudeste 0 -- -- 77
2021-02-02 21:00:00 11.2 21 Sudeste 27 Sudeste 0 -- -- 80
2021-02-02 20:00:00 11.2 4 Sudeste 9 Oeste 0 -- -- 80
2021-02-02 19:00:00 12.8 5 Sur 14 Sudeste 0 -- -- 75
2021-02-02 18:00:00 14.4 10 Sudeste 13 Sudeste 0 -- -- 71
2021-02-02 17:00:00 16.6 7 Sur 15 Sur 0 -- -- 62
2021-02-02 16:00:00 17.6 8 Sur 15 Sur 0 -- -- 58
2021-02-02 15:00:00 17.6 6 Sur 17 Sur 0 -- -- 58
2021-02-02 14:00:00 17.3 13 Sur 27 Sudeste 0 -- -- 58
2021-02-02 13:00:00 15.8 22 Sudeste 29 Sudeste 0 -- -- 67
2021-02-02 12:00:00 14.6 20 Sudeste 29 Sudeste 0 -- -- 73
2021-02-02 11:00:00 11.3 16 Sudeste 23 Sudeste 0 -- -- 83
2021-02-02 10:00:00 9.9 8 Sur 20 Sudeste 0 -- -- 87
2021-02-02 09:00:00 10.9 5 Sudoeste 11 Sur 0 -- -- 76
2021-02-02 08:00:00 9.1 5 Este 10 Este 0 -- -- 88
2021-02-02 07:00:00 7.9 6 Este 11 Este 0 -- -- 88
2021-02-02 06:00:00 9.8 6 Sudoeste 10 Sudoeste 0 -- -- 84
2021-02-02 05:00:00 10.8 7 Oeste 12 Oeste 0 -- -- 80
2021-02-02 04:00:00 10.7 4 Oeste 12 Oeste 0 -- -- 80
2021-02-02 03:00:00 9.7 3 Este 10 Este 0 -- -- 81
2021-02-02 02:00:00 10.9 5 Este 22 Norte 0 -- -- 77
2021-02-02 01:00:00 12.6 10 Norte 16 Norte 0 -- -- 71
2021-02-02 00:00:00 12.5 5 Sur 21 Sur 0 -- -- 73
2021-02-01 23:00:00 10.4 4 Sudeste 21 Noroeste 0 -- -- 87
2021-02-01 22:00:00 10.9 14 Noroeste 21 Noroeste 0 -- -- 88
2021-02-01 21:00:00 10.7 12 Noroeste 15 Noroeste 0 -- -- 89
2021-02-01 20:00:00 11.1 9 Norte 15 Norte 0 -- -- 85
2021-02-01 19:00:00 11.1 12 Noroeste 16 Noroeste 0 -- -- 83
2021-02-01 18:00:00 12.7 8 Norte 17 Norte 0 -- -- 76
2021-02-01 17:00:00 13.8 11 Norte 25 Noroeste 0 -- -- 71
2021-02-01 16:00:00 12.4 10 Noroeste 17 Norte 0 -- -- 75
2021-02-01 15:00:00 12.6 7 Norte 24 Oeste 0 -- -- 70
2021-02-01 14:00:00 13.7 23 Oeste 39 Oeste 0 -- -- 67
2021-02-01 13:00:00 14.2 22 Oeste 33 Oeste 0 -- -- 62
2021-02-01 12:00:00 13.8 14 Oeste 26 Oeste 0 -- -- 58
2021-02-01 11:00:00 11.5 17 Oeste 30 Oeste 0 -- -- 67
2021-02-01 10:00:00 9.7 14 Oeste 22 Oeste 0 -- -- 74
2021-02-01 09:00:00 7.9 5 Sudoeste 15 Oeste 0 -- -- 78
2021-02-01 08:00:00 7.7 8 Oeste 21 Oeste 0 -- -- 80
2021-02-01 07:00:00 7 4 Sudoeste 16 Oeste 0 -- -- 82
2021-02-01 06:00:00 7.3 3 Sudoeste 13 Oeste 0 -- -- 79
2021-02-01 05:00:00 9.3 11 Oeste 17 Oeste 0 -- -- 72
2021-02-01 04:00:00 9.4 6 Oeste 18 Oeste 0 -- -- 74
2021-02-01 03:00:00 10.6 7 Oeste 23 Oeste 0 -- -- 71
2021-02-01 02:00:00 10.9 13 Noroeste 25 Oeste 0 -- -- 69
2021-02-01 01:00:00 12.1 17 Oeste 36 Oeste 0 -- -- 65
2021-02-01 00:00:00 13 23 Oeste 45 Oeste 0 -- -- 63
2021-01-31 23:00:00 13.6 35 Oeste 62 Oeste 0 -- -- 60
2021-01-31 22:00:00 10.2 4 Sudoeste 24 Oeste 0 -- -- 78
2021-01-31 21:00:00 9.6 6 Sudeste 11 Sudeste 0 -- -- 84
2021-01-31 20:00:00 11.1 4 Sur 12 Sur 0 -- -- 78
2021-01-31 19:00:00 11.4 3 Sur 14 Noroeste 0 -- -- 80
2021-01-31 18:00:00 11.7 9 Noroeste 30 Noroeste 0 -- -- 80
2021-01-31 17:00:00 13.8 25 Oeste 45 Noroeste 0 -- -- 69
2021-01-31 16:00:00 14.3 27 Noroeste 40 Oeste 0 -- -- 68
2021-01-31 15:00:00 14.3 17 Noroeste 28 Noroeste 0 -- -- 69
2021-01-31 14:00:00 13.2 20 Noroeste 27 Noroeste 0 -- -- 75
2021-01-31 13:00:00 10.9 18 Oeste 27 Noroeste 0 -- -- 78
2021-01-31 12:00:00 9.9 13 Noroeste 22 Noroeste 0.2 -- -- 81
2021-01-31 11:00:00 9.4 12 Oeste 22 Oeste 0 -- -- 72
2021-01-31 10:00:00 8.8 8 Oeste 30 Oeste 0 -- -- 69
2021-01-31 09:00:00 8.7 15 Oeste 31 Oeste 0 -- -- 71
2021-01-31 08:00:00 8.5 15 Oeste 28 Oeste 0 -- -- 73
2021-01-31 07:00:00 7.7 7 Sudoeste 23 Oeste 0 -- -- 80
2021-01-31 06:00:00 7.2 3 Sudoeste 26 Oeste 0 -- -- 84
2021-01-31 05:00:00 7.4 13 Oeste 21 Oeste 0 -- -- 82
2021-01-31 04:00:00 7.3 3 Oeste 14 Oeste 0 -- -- 80
2021-01-31 03:00:00 7.3 10 Oeste 21 Oeste 0 -- -- 78
2021-01-31 02:00:00 7.2 14 Oeste 21 Oeste 0 -- -- 76
2021-01-31 01:00:00 8 17 Oeste 29 Oeste 0 -- -- 72
2021-01-31 00:00:00 8.2 17 Oeste 30 Oeste 0 -- -- 73
2021-01-30 23:00:00 7.2 6 Noroeste 10 Noroeste 0 -- -- 86
2021-01-30 22:00:00 6.6 2 Norte 6 Noroeste 0 -- -- 91
2021-01-30 21:00:00 6.6 2 Este 9 Sudeste 0 -- -- 89
2021-01-30 20:00:00 7.2 4 Norte 12 Norte 0 -- -- 90
2021-01-30 19:00:00 7.5 5 Norte 8 Noroeste 0 -- -- 85
2021-01-30 18:00:00 7.7 3 Nordeste 13 Nordeste 0 -- -- 83
2021-01-30 17:00:00 7.1 7 Noroeste 66 Noroeste 0.6 -- -- 87
2021-01-30 16:00:00 12.9 43 Oeste 62 Oeste 0 -- -- 54
2021-01-30 15:00:00 13.4 29 Oeste 60 Oeste 0 -- -- 53
2021-01-30 14:00:00 13.4 36 Oeste 60 Oeste 0 -- -- 55
2021-01-30 13:00:00 13.5 32 Oeste 69 Oeste 0.2 -- -- 57
2021-01-30 12:00:00 13.4 22 Oeste 50 Oeste 0 -- -- 61
2021-01-30 11:00:00 12.5 32 Oeste 55 Oeste 0 -- -- 69
2021-01-30 10:00:00 11.1 2 Sudeste 29 Sudoeste 0 -- -- 81
2021-01-30 09:00:00 8.4 10 Sudoeste 22 Oeste 0 -- -- 88
2021-01-30 08:00:00 8.8 9 Sur 28 Sur 0 -- -- 87
2021-01-30 07:00:00 8.9 5 Sur 22 Sudoeste 0.2 -- -- 91
2021-01-30 06:00:00 9.3 11 Sudoeste 40 Oeste 2.2 -- -- 93
2021-01-30 05:00:00 8.8 5 Sudoeste 13 Sudeste 0 -- -- 92
2021-01-30 04:00:00 9 4 Este 13 Este 0 -- -- 91
2021-01-30 03:00:00 7.8 4 Noroeste 12 Oeste 0 -- -- 95
2021-01-30 02:00:00 7.9 2 Sur 12 Sudeste 0 -- -- 93
2021-01-30 01:00:00 7.4 0 Calma 8 Noroeste 0 -- -- 94
2021-01-30 00:00:00 7.9 4 Noroeste 6 Noroeste 0 -- -- 91